sensor_id;sensor_type;location;lat;lon;timestamp;P1;durP1;ratioP1;P2;durP2;ratioP2
76053;SDS011;64752;48.870;9.082;2023-11-19T00:02:20;2.92;;;1.60;;
76053;SDS011;64752;48.870;9.082;2023-11-19T00:04:45;2.53;;;1.90;;
76053;SDS011;64752;48.870;9.082;2023-11-19T00:07:10;2.90;;;1.80;;
76053;SDS011;64752;48.870;9.082;2023-11-19T00:09:38;4.57;;;2.00;;
76053;SDS011;64752;48.870;9.082;2023-11-19T00:12:04;3.70;;;1.83;;
76053;SDS011;64752;48.870;9.082;2023-11-19T00:14:31;3.75;;;1.73;;
76053;SDS011;64752;48.870;9.082;2023-11-19T00:16:56;8.15;;;2.30;;
76053;SDS011;64752;48.870;9.082;2023-11-19T00:19:21;5.05;;;2.13;;
76053;SDS011;64752;48.870;9.082;2023-11-19T00:21:47;4.80;;;2.05;;
76053;SDS011;64752;48.870;9.082;2023-11-19T00:24:12;4.13;;;2.45;;
76053;SDS011;64752;48.870;9.082;2023-11-19T00:26:40;2.53;;;1.98;;
76053;SDS011;64752;48.870;9.082;2023-11-19T00:29:06;2.92;;;2.08;;
76053;SDS011;64752;48.870;9.082;2023-11-19T00:31:32;3.67;;;2.30;;
76053;SDS011;64752;48.870;9.082;2023-11-19T00:33:57;2.38;;;1.70;;
76053;SDS011;64752;48.870;9.082;2023-11-19T00:36:23;3.30;;;1.70;;
76053;SDS011;64752;48.870;9.082;2023-11-19T00:38:49;2.40;;;1.60;;
76053;SDS011;64752;48.870;9.082;2023-11-19T00:41:15;3.17;;;1.80;;
76053;SDS011;64752;48.870;9.082;2023-11-19T00:43:41;2.20;;;1.48;;
76053;SDS011;64752;48.870;9.082;2023-11-19T00:46:07;8.10;;;1.40;;
76053;SDS011;64752;48.870;9.082;2023-11-19T00:48:32;3.83;;;1.60;;
76053;SDS011;64752;48.870;9.082;2023-11-19T00:50:58;1.92;;;1.45;;
76053;SDS011;64752;48.870;9.082;2023-11-19T00:53:23;2.10;;;1.02;;
76053;SDS011;64752;48.870;9.082;2023-11-19T00:55:48;3.22;;;1.40;;
76053;SDS011;64752;48.870;9.082;2023-11-19T00:58:14;0.88;;;0.82;;
76053;SDS011;64752;48.870;9.082;2023-11-19T01:00:39;3.33;;;1.08;;
76053;SDS011;64752;48.870;9.082;2023-11-19T01:03:05;1.42;;;0.88;;
76053;SDS011;64752;48.870;9.082;2023-11-19T01:05:32;1.27;;;0.90;;
76053;SDS011;64752;48.870;9.082;2023-11-19T01:07:57;3.22;;;1.00;;
76053;SDS011;64752;48.870;9.082;2023-11-19T01:10:22;0.93;;;0.50;;
76053;SDS011;64752;48.870;9.082;2023-11-19T01:12:49;1.00;;;0.65;;
76053;SDS011;64752;48.870;9.082;2023-11-19T01:15:14;1.10;;;0.65;;
76053;SDS011;64752;48.870;9.082;2023-11-19T01:17:40;1.85;;;0.50;;
76053;SDS011;64752;48.870;9.082;2023-11-19T01:20:05;0.90;;;0.50;;
76053;SDS011;64752;48.870;9.082;2023-11-19T01:22:37;0.65;;;0.52;;
76053;SDS011;64752;48.870;9.082;2023-11-19T01:25:02;0.30;;;0.30;;
76053;SDS011;64752;48.870;9.082;2023-11-19T01:27:30;0.30;;;0.30;;
76053;SDS011;64752;48.870;9.082;2023-11-19T01:29:55;0.40;;;0.40;;
76053;SDS011;64752;48.870;9.082;2023-11-19T01:32:21;0.52;;;0.50;;
76053;SDS011;64752;48.870;9.082;2023-11-19T01:34:46;1.55;;;0.50;;
76053;SDS011;64752;48.870;9.082;2023-11-19T01:37:12;0.57;;;0.40;;
76053;SDS011;64752;48.870;9.082;2023-11-19T01:39:39;2.13;;;0.32;;
76053;SDS011;64752;48.870;9.082;2023-11-19T01:42:04;0.28;;;0.22;;
76053;SDS011;64752;48.870;9.082;2023-11-19T01:44:30;0.57;;;0.32;;
76053;SDS011;64752;48.870;9.082;2023-11-19T01:46:57;2.17;;;0.85;;
76053;SDS011;64752;48.870;9.082;2023-11-19T01:49:22;0.30;;;0.28;;
76053;SDS011;64752;48.870;9.082;2023-11-19T01:51:48;1.40;;;0.40;;
76053;SDS011;64752;48.870;9.082;2023-11-19T01:54:14;0.22;;;0.22;;
76053;SDS011;64752;48.870;9.082;2023-11-19T01:56:40;0.50;;;0.40;;
76053;SDS011;64752;48.870;9.082;2023-11-19T01:59:07;0.35;;;0.35;;
76053;SDS011;64752;48.870;9.082;2023-11-19T02:01:36;0.57;;;0.20;;
76053;SDS011;64752;48.870;9.082;2023-11-19T02:04:04;0.45;;;0.32;;
76053;SDS011;64752;48.870;9.082;2023-11-19T02:06:32;0.25;;;0.22;;
76053;SDS011;64752;48.870;9.082;2023-11-19T02:08:59;0.75;;;0.40;;
76053;SDS011;64752;48.870;9.082;2023-11-19T02:11:25;0.30;;;0.20;;
76053;SDS011;64752;48.870;9.082;2023-11-19T02:13:54;0.20;;;0.20;;
76053;SDS011;64752;48.870;9.082;2023-11-19T02:16:20;1.98;;;0.20;;
76053;SDS011;64752;48.870;9.082;2023-11-19T02:18:46;0.10;;;0.10;;
76053;SDS011;64752;48.870;9.082;2023-11-19T02:21:13;1.30;;;0.30;;
76053;SDS011;64752;48.870;9.082;2023-11-19T02:23:40;0.80;;;0.20;;
76053;SDS011;64752;48.870;9.082;2023-11-19T02:28:34;1.00;;;0.40;;
76053;SDS011;64752;48.870;9.082;2023-11-19T02:31:02;0.60;;;0.30;;
76053;SDS011;64752;48.870;9.082;2023-11-19T02:33:29;9.30;;;0.50;;
76053;SDS011;64752;48.870;9.082;2023-11-19T02:35:55;3.38;;;0.10;;
76053;SDS011;64752;48.870;9.082;2023-11-19T02:38:21;0.30;;;0.30;;
76053;SDS011;64752;48.870;9.082;2023-11-19T02:40:47;2.53;;;0.30;;
76053;SDS011;64752;48.870;9.082;2023-11-19T02:43:12;0.40;;;0.30;;
76053;SDS011;64752;48.870;9.082;2023-11-19T02:45:38;0.35;;;0.20;;
76053;SDS011;64752;48.870;9.082;2023-11-19T02:48:03;0.85;;;0.28;;
76053;SDS011;64752;48.870;9.082;2023-11-19T02:50:31;0.20;;;0.20;;
76053;SDS011;64752;48.870;9.082;2023-11-19T02:52:57;0.17;;;0.17;;
76053;SDS011;64752;48.870;9.082;2023-11-19T02:55:23;0.20;;;0.17;;
76053;SDS011;64752;48.870;9.082;2023-11-19T02:57:49;0.85;;;0.20;;
76053;SDS011;64752;48.870;9.082;2023-11-19T03:00:15;0.43;;;0.10;;
76053;SDS011;64752;48.870;9.082;2023-11-19T03:02:48;2.85;;;0.13;;
76053;SDS011;64752;48.870;9.082;2023-11-19T03:05:24;0.75;;;0.50;;
76053;SDS011;64752;48.870;9.082;2023-11-19T03:07:50;1.10;;;0.43;;
76053;SDS011;64752;48.870;9.082;2023-11-19T03:10:16;1.02;;;0.50;;
76053;SDS011;64752;48.870;9.082;2023-11-19T03:12:42;0.30;;;0.30;;
76053;SDS011;64752;48.870;9.082;2023-11-19T03:15:08;1.88;;;0.30;;
76053;SDS011;64752;48.870;9.082;2023-11-19T03:17:35;0.60;;;0.32;;
76053;SDS011;64752;48.870;9.082;2023-11-19T03:20:07;0.57;;;0.35;;
76053;SDS011;64752;48.870;9.082;2023-11-19T03:22:40;0.55;;;0.40;;
76053;SDS011;64752;48.870;9.082;2023-11-19T03:25:11;2.13;;;0.70;;
76053;SDS011;64752;48.870;9.082;2023-11-19T03:27:38;0.83;;;0.50;;
76053;SDS011;64752;48.870;9.082;2023-11-19T03:30:04;0.50;;;0.50;;
76053;SDS011;64752;48.870;9.082;2023-11-19T03:32:31;5.05;;;0.50;;
76053;SDS011;64752;48.870;9.082;2023-11-19T03:34:57;1.15;;;0.60;;
76053;SDS011;64752;48.870;9.082;2023-11-19T03:37:23;0.55;;;0.30;;
76053;SDS011;64752;48.870;9.082;2023-11-19T03:39:49;1.73;;;0.30;;
76053;SDS011;64752;48.870;9.082;2023-11-19T03:42:14;0.75;;;0.38;;
76053;SDS011;64752;48.870;9.082;2023-11-19T03:44:39;0.95;;;0.20;;
76053;SDS011;64752;48.870;9.082;2023-11-19T03:47:05;0.90;;;0.30;;
76053;SDS011;64752;48.870;9.082;2023-11-19T03:49:31;0.80;;;0.28;;
76053;SDS011;64752;48.870;9.082;2023-11-19T03:51:56;1.95;;;0.40;;
76053;SDS011;64752;48.870;9.082;2023-11-19T03:54:21;0.70;;;0.10;;
76053;SDS011;64752;48.870;9.082;2023-11-19T03:56:48;0.95;;;0.70;;
76053;SDS011;64752;48.870;9.082;2023-11-19T03:59:13;0.60;;;0.20;;
76053;SDS011;64752;48.870;9.082;2023-11-19T04:01:40;0.52;;;0.22;;
76053;SDS011;64752;48.870;9.082;2023-11-19T04:04:05;0.73;;;0.40;;
76053;SDS011;64752;48.870;9.082;2023-11-19T04:06:31;0.88;;;0.30;;
76053;SDS011;64752;48.870;9.082;2023-11-19T04:08:56;0.20;;;0.20;;
76053;SDS011;64752;48.870;9.082;2023-11-19T04:11:22;2.78;;;0.38;;
76053;SDS011;64752;48.870;9.082;2023-11-19T04:13:47;0.38;;;0.20;;
76053;SDS011;64752;48.870;9.082;2023-11-19T04:16:12;1.17;;;0.20;;
76053;SDS011;64752;48.870;9.082;2023-11-19T04:18:39;1.55;;;0.10;;
76053;SDS011;64752;48.870;9.082;2023-11-19T04:21:06;1.75;;;0.20;;
76053;SDS011;64752;48.870;9.082;2023-11-19T04:23:34;0.43;;;0.10;;
76053;SDS011;64752;48.870;9.082;2023-11-19T04:26:03;0.20;;;0.20;;
76053;SDS011;64752;48.870;9.082;2023-11-19T04:28:30;0.10;;;0.10;;
76053;SDS011;64752;48.870;9.082;2023-11-19T04:30:55;0.30;;;0.20;;
76053;SDS011;64752;48.870;9.082;2023-11-19T04:33:21;0.70;;;0.32;;
76053;SDS011;64752;48.870;9.082;2023-11-19T04:35:46;0.30;;;0.20;;
76053;SDS011;64752;48.870;9.082;2023-11-19T04:38:12;0.13;;;0.10;;
76053;SDS011;64752;48.870;9.082;2023-11-19T04:40:37;0.20;;;0.20;;
76053;SDS011;64752;48.870;9.082;2023-11-19T04:43:02;1.90;;;0.13;;
76053;SDS011;64752;48.870;9.082;2023-11-19T04:45:28;0.25;;;0.13;;
76053;SDS011;64752;48.870;9.082;2023-11-19T04:47:53;0.10;;;0.10;;
76053;SDS011;64752;48.870;9.082;2023-11-19T04:50:18;0.75;;;0.08;;
76053;SDS011;64752;48.870;9.082;2023-11-19T04:52:43;0.15;;;0.05;;
76053;SDS011;64752;48.870;9.082;2023-11-19T04:55:10;0.95;;;0.10;;
76053;SDS011;64752;48.870;9.082;2023-11-19T04:57:36;0.28;;;0.20;;
76053;SDS011;64752;48.870;9.082;2023-11-19T05:00:02;0.82;;;0.28;;
76053;SDS011;64752;48.870;9.082;2023-11-19T05:02:30;0.20;;;0.20;;
76053;SDS011;64752;48.870;9.082;2023-11-19T05:04:55;0.30;;;0.10;;
76053;SDS011;64752;48.870;9.082;2023-11-19T05:07:21;0.03;;;0.03;;
76053;SDS011;64752;48.870;9.082;2023-11-19T05:09:47;0.00;;;0.00;;
76053;SDS011;64752;48.870;9.082;2023-11-19T05:12:12;0.70;;;0.20;;
76053;SDS011;64752;48.870;9.082;2023-11-19T05:14:38;0.40;;;0.10;;
76053;SDS011;64752;48.870;9.082;2023-11-19T05:17:03;1.00;;;0.17;;
76053;SDS011;64752;48.870;9.082;2023-11-19T05:19:29;0.80;;;0.20;;
76053;SDS011;64752;48.870;9.082;2023-11-19T05:21:55;0.20;;;0.20;;
76053;SDS011;64752;48.870;9.082;2023-11-19T05:24:20;0.13;;;0.13;;
76053;SDS011;64752;48.870;9.082;2023-11-19T05:26:45;0.45;;;0.17;;
76053;SDS011;64752;48.870;9.082;2023-11-19T05:29:11;0.20;;;0.20;;
76053;SDS011;64752;48.870;9.082;2023-11-19T05:31:37;1.00;;;0.15;;
76053;SDS011;64752;48.870;9.082;2023-11-19T05:34:03;0.45;;;0.10;;
76053;SDS011;64752;48.870;9.082;2023-11-19T05:36:29;0.10;;;0.10;;
76053;SDS011;64752;48.870;9.082;2023-11-19T05:38:54;0.10;;;0.10;;
76053;SDS011;64752;48.870;9.082;2023-11-19T05:41:20;0.20;;;0.20;;
76053;SDS011;64752;48.870;9.082;2023-11-19T05:43:45;0.65;;;0.32;;
76053;SDS011;64752;48.870;9.082;2023-11-19T05:46:11;0.32;;;0.17;;
76053;SDS011;64752;48.870;9.082;2023-11-19T05:51:03;0.03;;;0.03;;
76053;SDS011;64752;48.870;9.082;2023-11-19T05:53:29;0.10;;;0.10;;
76053;SDS011;64752;48.870;9.082;2023-11-19T05:55:54;0.65;;;0.20;;
76053;SDS011;64752;48.870;9.082;2023-11-19T05:58:26;0.83;;;0.20;;
76053;SDS011;64752;48.870;9.082;2023-11-19T06:00:57;5.55;;;0.38;;
76053;SDS011;64752;48.870;9.082;2023-11-19T06:03:22;0.52;;;0.40;;
76053;SDS011;64752;48.870;9.082;2023-11-19T06:05:50;0.20;;;0.20;;
76053;SDS011;64752;48.870;9.082;2023-11-19T06:08:15;2.30;;;0.40;;
76053;SDS011;64752;48.870;9.082;2023-11-19T06:10:41;0.70;;;0.38;;
76053;SDS011;64752;48.870;9.082;2023-11-19T06:13:07;0.40;;;0.40;;
76053;SDS011;64752;48.870;9.082;2023-11-19T06:15:35;0.30;;;0.30;;
76053;SDS011;64752;48.870;9.082;2023-11-19T06:18:01;0.35;;;0.35;;
76053;SDS011;64752;48.870;9.082;2023-11-19T06:22:54;0.77;;;0.40;;
76053;SDS011;64752;48.870;9.082;2023-11-19T06:25:19;0.70;;;0.40;;
76053;SDS011;64752;48.870;9.082;2023-11-19T06:27:45;1.25;;;0.28;;
76053;SDS011;64752;48.870;9.082;2023-11-19T06:30:10;0.30;;;0.30;;
76053;SDS011;64752;48.870;9.082;2023-11-19T06:32:36;4.30;;;0.43;;
76053;SDS011;64752;48.870;9.082;2023-11-19T06:35:02;1.70;;;0.60;;
76053;SDS011;64752;48.870;9.082;2023-11-19T06:37:29;0.80;;;0.30;;
76053;SDS011;64752;48.870;9.082;2023-11-19T06:39:55;0.10;;;0.10;;
76053;SDS011;64752;48.870;9.082;2023-11-19T06:42:20;0.45;;;0.45;;
76053;SDS011;64752;48.870;9.082;2023-11-19T06:44:46;0.28;;;0.28;;
76053;SDS011;64752;48.870;9.082;2023-11-19T06:47:11;0.20;;;0.20;;
76053;SDS011;64752;48.870;9.082;2023-11-19T06:49:36;0.90;;;0.40;;
76053;SDS011;64752;48.870;9.082;2023-11-19T06:52:02;0.40;;;0.32;;
76053;SDS011;64752;48.870;9.082;2023-11-19T06:54:27;0.13;;;0.13;;
76053;SDS011;64752;48.870;9.082;2023-11-19T06:56:53;2.38;;;0.45;;
76053;SDS011;64752;48.870;9.082;2023-11-19T06:59:18;0.20;;;0.20;;
76053;SDS011;64752;48.870;9.082;2023-11-19T07:01:44;1.88;;;0.50;;
76053;SDS011;64752;48.870;9.082;2023-11-19T07:04:12;1.80;;;0.80;;
76053;SDS011;64752;48.870;9.082;2023-11-19T07:06:37;1.63;;;0.45;;
76053;SDS011;64752;48.870;9.082;2023-11-19T07:09:06;0.70;;;0.50;;
76053;SDS011;64752;48.870;9.082;2023-11-19T07:11:37;1.27;;;0.40;;
76053;SDS011;64752;48.870;9.082;2023-11-19T07:14:04;0.60;;;0.60;;
76053;SDS011;64752;48.870;9.082;2023-11-19T07:16:31;3.17;;;0.32;;
76053;SDS011;64752;48.870;9.082;2023-11-19T07:19:02;0.80;;;0.63;;
76053;SDS011;64752;48.870;9.082;2023-11-19T07:21:28;2.35;;;0.50;;
76053;SDS011;64752;48.870;9.082;2023-11-19T07:23:57;0.28;;;0.28;;
76053;SDS011;64752;48.870;9.082;2023-11-19T07:26:22;1.02;;;0.45;;
76053;SDS011;64752;48.870;9.082;2023-11-19T07:28:52;0.40;;;0.40;;
76053;SDS011;64752;48.870;9.082;2023-11-19T07:31:18;0.90;;;0.80;;
76053;SDS011;64752;48.870;9.082;2023-11-19T07:33:46;1.27;;;0.80;;
76053;SDS011;64752;48.870;9.082;2023-11-19T07:36:12;0.67;;;0.67;;
76053;SDS011;64752;48.870;9.082;2023-11-19T07:38:38;0.37;;;0.37;;
76053;SDS011;64752;48.870;9.082;2023-11-19T07:41:04;0.30;;;0.30;;
76053;SDS011;64752;48.870;9.082;2023-11-19T07:43:30;2.00;;;0.50;;
76053;SDS011;64752;48.870;9.082;2023-11-19T07:45:56;1.02;;;0.65;;
76053;SDS011;64752;48.870;9.082;2023-11-19T07:48:24;1.05;;;0.40;;
76053;SDS011;64752;48.870;9.082;2023-11-19T07:50:49;0.30;;;0.28;;
76053;SDS011;64752;48.870;9.082;2023-11-19T07:53:15;0.85;;;0.50;;
76053;SDS011;64752;48.870;9.082;2023-11-19T07:55:41;2.07;;;0.47;;
76053;SDS011;64752;48.870;9.082;2023-11-19T07:58:06;0.52;;;0.32;;
76053;SDS011;64752;48.870;9.082;2023-11-19T08:00:32;0.75;;;0.63;;
76053;SDS011;64752;48.870;9.082;2023-11-19T08:02:57;2.07;;;0.70;;
76053;SDS011;64752;48.870;9.082;2023-11-19T08:05:22;1.07;;;0.40;;
76053;SDS011;64752;48.870;9.082;2023-11-19T08:07:49;0.50;;;0.40;;
76053;SDS011;64752;48.870;9.082;2023-11-19T08:10:15;1.00;;;0.52;;
76053;SDS011;64752;48.870;9.082;2023-11-19T08:12:40;0.73;;;0.50;;
76053;SDS011;64752;48.870;9.082;2023-11-19T08:15:06;1.65;;;0.40;;
76053;SDS011;64752;48.870;9.082;2023-11-19T08:17:34;0.60;;;0.57;;
76053;SDS011;64752;48.870;9.082;2023-11-19T08:19:59;1.00;;;0.80;;
76053;SDS011;64752;48.870;9.082;2023-11-19T08:22:25;2.08;;;1.13;;
76053;SDS011;64752;48.870;9.082;2023-11-19T08:24:50;0.93;;;0.90;;
76053;SDS011;64752;48.870;9.082;2023-11-19T08:27:15;0.82;;;0.60;;
76053;SDS011;64752;48.870;9.082;2023-11-19T08:29:41;0.52;;;0.50;;
76053;SDS011;64752;48.870;9.082;2023-11-19T08:32:06;1.30;;;0.60;;
76053;SDS011;64752;48.870;9.082;2023-11-19T08:34:32;1.15;;;0.60;;
76053;SDS011;64752;48.870;9.082;2023-11-19T08:36:57;1.92;;;0.63;;
76053;SDS011;64752;48.870;9.082;2023-11-19T08:39:23;1.13;;;0.50;;
76053;SDS011;64752;48.870;9.082;2023-11-19T08:42:05;2.35;;;0.90;;
76053;SDS011;64752;48.870;9.082;2023-11-19T08:44:30;1.95;;;0.70;;
76053;SDS011;64752;48.870;9.082;2023-11-19T08:46:56;2.42;;;0.57;;
76053;SDS011;64752;48.870;9.082;2023-11-19T08:49:21;0.75;;;0.47;;
76053;SDS011;64752;48.870;9.082;2023-11-19T08:51:48;1.98;;;0.80;;
76053;SDS011;64752;48.870;9.082;2023-11-19T08:54:13;1.20;;;0.70;;
76053;SDS011;64752;48.870;9.082;2023-11-19T08:56:39;13.50;;;3.13;;
76053;SDS011;64752;48.870;9.082;2023-11-19T08:59:05;0.95;;;0.77;;
76053;SDS011;64752;48.870;9.082;2023-11-19T09:01:30;3.13;;;0.60;;
76053;SDS011;64752;48.870;9.082;2023-11-19T09:03:55;0.93;;;0.40;;
76053;SDS011;64752;48.870;9.082;2023-11-19T09:06:21;0.67;;;0.50;;
76053;SDS011;64752;48.870;9.082;2023-11-19T09:08:46;0.70;;;0.50;;
76053;SDS011;64752;48.870;9.082;2023-11-19T09:11:12;1.20;;;0.67;;
76053;SDS011;64752;48.870;9.082;2023-11-19T09:13:37;1.07;;;0.60;;
76053;SDS011;64752;48.870;9.082;2023-11-19T09:16:03;1.40;;;0.50;;
76053;SDS011;64752;48.870;9.082;2023-11-19T09:18:31;1.40;;;0.47;;
76053;SDS011;64752;48.870;9.082;2023-11-19T09:20:57;1.20;;;0.60;;
76053;SDS011;64752;48.870;9.082;2023-11-19T09:23:23;1.30;;;0.70;;
76053;SDS011;64752;48.870;9.082;2023-11-19T09:25:50;3.72;;;0.90;;
76053;SDS011;64752;48.870;9.082;2023-11-19T09:28:15;5.30;;;1.10;;
76053;SDS011;64752;48.870;9.082;2023-11-19T09:30:41;2.03;;;0.90;;
76053;SDS011;64752;48.870;9.082;2023-11-19T09:33:06;2.27;;;0.83;;
76053;SDS011;64752;48.870;9.082;2023-11-19T09:35:32;3.33;;;0.80;;
76053;SDS011;64752;48.870;9.082;2023-11-19T09:37:58;1.07;;;0.80;;
76053;SDS011;64752;48.870;9.082;2023-11-19T09:40:24;1.40;;;0.63;;
76053;SDS011;64752;48.870;9.082;2023-11-19T09:42:49;1.77;;;0.57;;
76053;SDS011;64752;48.870;9.082;2023-11-19T09:45:16;2.87;;;0.90;;
76053;SDS011;64752;48.870;9.082;2023-11-19T09:47:43;2.65;;;0.73;;
76053;SDS011;64752;48.870;9.082;2023-11-19T09:50:16;1.83;;;0.60;;
76053;SDS011;64752;48.870;9.082;2023-11-19T09:52:43;0.82;;;0.60;;
76053;SDS011;64752;48.870;9.082;2023-11-19T09:55:10;2.03;;;0.60;;
76053;SDS011;64752;48.870;9.082;2023-11-19T09:57:35;2.87;;;0.60;;
76053;SDS011;64752;48.870;9.082;2023-11-19T10:00:07;2.70;;;0.90;;
76053;SDS011;64752;48.870;9.082;2023-11-19T10:02:35;4.88;;;0.80;;
76053;SDS011;64752;48.870;9.082;2023-11-19T10:05:04;2.05;;;0.60;;
76053;SDS011;64752;48.870;9.082;2023-11-19T10:07:31;2.90;;;0.95;;
76053;SDS011;64752;48.870;9.082;2023-11-19T10:10:00;1.48;;;0.80;;
76053;SDS011;64752;48.870;9.082;2023-11-19T10:12:29;1.45;;;0.80;;
76053;SDS011;64752;48.870;9.082;2023-11-19T10:14:56;3.13;;;0.53;;
76053;SDS011;64752;48.870;9.082;2023-11-19T10:17:27;1.73;;;0.60;;
76053;SDS011;64752;48.870;9.082;2023-11-19T10:19:54;1.75;;;0.55;;
76053;SDS011;64752;48.870;9.082;2023-11-19T10:22:20;2.70;;;0.77;;
76053;SDS011;64752;48.870;9.082;2023-11-19T10:24:45;1.27;;;0.80;;
76053;SDS011;64752;48.870;9.082;2023-11-19T10:27:11;2.47;;;0.73;;
76053;SDS011;64752;48.870;9.082;2023-11-19T10:29:36;1.90;;;1.03;;
76053;SDS011;64752;48.870;9.082;2023-11-19T10:32:03;2.70;;;1.20;;
76053;SDS011;64752;48.870;9.082;2023-11-19T10:34:29;2.27;;;1.30;;
76053;SDS011;64752;48.870;9.082;2023-11-19T10:36:57;1.33;;;0.47;;
76053;SDS011;64752;48.870;9.082;2023-11-19T10:39:22;1.15;;;0.40;;
76053;SDS011;64752;48.870;9.082;2023-11-19T10:41:58;2.35;;;1.10;;
76053;SDS011;64752;48.870;9.082;2023-11-19T10:44:41;1.60;;;0.70;;
76053;SDS011;64752;48.870;9.082;2023-11-19T10:47:07;3.07;;;1.00;;
76053;SDS011;64752;48.870;9.082;2023-11-19T10:49:34;1.83;;;0.70;;
76053;SDS011;64752;48.870;9.082;2023-11-19T10:52:00;2.13;;;1.08;;
76053;SDS011;64752;48.870;9.082;2023-11-19T10:54:27;2.33;;;0.60;;
76053;SDS011;64752;48.870;9.082;2023-11-19T10:56:58;2.38;;;0.80;;
76053;SDS011;64752;48.870;9.082;2023-11-19T10:59:29;1.98;;;0.60;;
76053;SDS011;64752;48.870;9.082;2023-11-19T11:01:57;2.63;;;1.25;;
76053;SDS011;64752;48.870;9.082;2023-11-19T11:04:23;3.43;;;1.43;;
76053;SDS011;64752;48.870;9.082;2023-11-19T11:06:56;2.95;;;1.08;;
76053;SDS011;64752;48.870;9.082;2023-11-19T11:09:29;2.67;;;0.75;;
76053;SDS011;64752;48.870;9.082;2023-11-19T11:11:55;2.57;;;0.97;;
76053;SDS011;64752;48.870;9.082;2023-11-19T11:14:22;1.05;;;0.90;;
76053;SDS011;64752;48.870;9.082;2023-11-19T11:16:50;4.85;;;1.73;;
76053;SDS011;64752;48.870;9.082;2023-11-19T11:19:17;3.13;;;1.30;;
76053;SDS011;64752;48.870;9.082;2023-11-19T11:21:44;2.67;;;1.20;;
76053;SDS011;64752;48.870;9.082;2023-11-19T11:32:33;4.45;;;1.83;;
76053;SDS011;64752;48.870;9.082;2023-11-19T11:37:50;2.50;;;0.93;;
76053;SDS011;64752;48.870;9.082;2023-11-19T11:40:25;4.30;;;1.00;;
76053;SDS011;64752;48.870;9.082;2023-11-19T11:42:51;2.95;;;0.75;;
76053;SDS011;64752;48.870;9.082;2023-11-19T11:45:17;1.30;;;0.73;;
76053;SDS011;64752;48.870;9.082;2023-11-19T11:50:20;4.03;;;1.08;;
76053;SDS011;64752;48.870;9.082;2023-11-19T11:55:23;3.22;;;0.95;;
76053;SDS011;64752;48.870;9.082;2023-11-19T11:58:30;1.30;;;0.85;;
76053;SDS011;64752;48.870;9.082;2023-11-19T12:00:57;5.63;;;0.98;;
76053;SDS011;64752;48.870;9.082;2023-11-19T12:03:26;3.15;;;0.95;;
76053;SDS011;64752;48.870;9.082;2023-11-19T12:05:53;2.72;;;1.27;;
76053;SDS011;64752;48.870;9.082;2023-11-19T12:08:19;1.57;;;0.77;;
76053;SDS011;64752;48.870;9.082;2023-11-19T12:10:49;2.15;;;0.90;;
76053;SDS011;64752;48.870;9.082;2023-11-19T12:13:17;2.78;;;1.02;;
76053;SDS011;64752;48.870;9.082;2023-11-19T12:20:54;2.80;;;0.60;;
76053;SDS011;64752;48.870;9.082;2023-11-19T12:23:20;2.20;;;0.77;;
76053;SDS011;64752;48.870;9.082;2023-11-19T12:25:45;3.03;;;0.80;;
76053;SDS011;64752;48.870;9.082;2023-11-19T12:28:11;2.35;;;1.20;;
76053;SDS011;64752;48.870;9.082;2023-11-19T12:30:38;2.50;;;0.80;;
76053;SDS011;64752;48.870;9.082;2023-11-19T12:33:10;1.33;;;0.70;;
76053;SDS011;64752;48.870;9.082;2023-11-19T12:35:39;2.15;;;0.63;;
76053;SDS011;64752;48.870;9.082;2023-11-19T12:38:05;2.45;;;1.00;;
76053;SDS011;64752;48.870;9.082;2023-11-19T12:40:31;6.73;;;0.90;;
76053;SDS011;64752;48.870;9.082;2023-11-19T12:42:56;1.27;;;0.50;;
76053;SDS011;64752;48.870;9.082;2023-11-19T12:45:22;2.70;;;0.60;;
76053;SDS011;64752;48.870;9.082;2023-11-19T12:47:49;2.30;;;0.60;;
76053;SDS011;64752;48.870;9.082;2023-11-19T12:50:17;1.85;;;0.90;;
76053;SDS011;64752;48.870;9.082;2023-11-19T12:52:54;2.00;;;0.80;;
76053;SDS011;64752;48.870;9.082;2023-11-19T12:55:28;3.05;;;0.70;;
76053;SDS011;64752;48.870;9.082;2023-11-19T12:57:54;2.95;;;0.80;;
76053;SDS011;64752;48.870;9.082;2023-11-19T13:00:21;3.65;;;0.68;;
76053;SDS011;64752;48.870;9.082;2023-11-19T13:02:55;2.88;;;0.60;;
76053;SDS011;64752;48.870;9.082;2023-11-19T13:05:29;2.15;;;0.80;;
76053;SDS011;64752;48.870;9.082;2023-11-19T13:08:00;1.90;;;0.70;;
76053;SDS011;64752;48.870;9.082;2023-11-19T13:10:32;3.13;;;0.77;;
76053;SDS011;64752;48.870;9.082;2023-11-19T13:13:06;3.17;;;0.93;;
76053;SDS011;64752;48.870;9.082;2023-11-19T13:15:33;1.40;;;0.73;;
76053;SDS011;64752;48.870;9.082;2023-11-19T13:20:25;2.40;;;0.60;;
76053;SDS011;64752;48.870;9.082;2023-11-19T13:23:01;5.57;;;0.80;;
76053;SDS011;64752;48.870;9.082;2023-11-19T13:25:27;2.13;;;0.60;;
76053;SDS011;64752;48.870;9.082;2023-11-19T13:27:54;1.37;;;0.50;;
76053;SDS011;64752;48.870;9.082;2023-11-19T13:30:23;3.15;;;0.68;;
76053;SDS011;64752;48.870;9.082;2023-11-19T13:32:50;2.47;;;0.60;;
76053;SDS011;64752;48.870;9.082;2023-11-19T13:35:16;3.05;;;0.93;;
76053;SDS011;64752;48.870;9.082;2023-11-19T13:37:42;3.00;;;0.80;;
76053;SDS011;64752;48.870;9.082;2023-11-19T13:40:08;1.60;;;0.80;;
76053;SDS011;64752;48.870;9.082;2023-11-19T13:42:39;3.47;;;1.10;;
76053;SDS011;64752;48.870;9.082;2023-11-19T13:47:41;3.35;;;0.77;;
76053;SDS011;64752;48.870;9.082;2023-11-19T13:50:09;3.60;;;0.90;;
76053;SDS011;64752;48.870;9.082;2023-11-19T13:52:39;4.72;;;0.70;;
76053;SDS011;64752;48.870;9.082;2023-11-19T13:55:07;1.65;;;0.63;;
76053;SDS011;64752;48.870;9.082;2023-11-19T13:57:37;2.58;;;0.90;;
76053;SDS011;64752;48.870;9.082;2023-11-19T14:00:04;3.60;;;1.00;;
76053;SDS011;64752;48.870;9.082;2023-11-19T14:02:32;2.47;;;0.70;;
76053;SDS011;64752;48.870;9.082;2023-11-19T14:04:58;1.55;;;0.50;;
76053;SDS011;64752;48.870;9.082;2023-11-19T14:07:23;1.53;;;0.50;;
76053;SDS011;64752;48.870;9.082;2023-11-19T14:09:49;3.93;;;0.60;;
76053;SDS011;64752;48.870;9.082;2023-11-19T14:12:15;3.40;;;0.70;;
76053;SDS011;64752;48.870;9.082;2023-11-19T14:14:40;0.80;;;0.40;;
76053;SDS011;64752;48.870;9.082;2023-11-19T14:17:07;1.88;;;0.60;;
76053;SDS011;64752;48.870;9.082;2023-11-19T14:19:32;2.47;;;0.63;;
76053;SDS011;64752;48.870;9.082;2023-11-19T14:21:58;0.80;;;0.40;;
76053;SDS011;64752;48.870;9.082;2023-11-19T14:24:24;4.03;;;0.90;;
76053;SDS011;64752;48.870;9.082;2023-11-19T14:26:50;1.93;;;0.90;;
76053;SDS011;64752;48.870;9.082;2023-11-19T14:29:16;1.63;;;0.60;;
76053;SDS011;64752;48.870;9.082;2023-11-19T14:31:42;9.87;;;0.73;;
76053;SDS011;64752;48.870;9.082;2023-11-19T14:34:07;2.30;;;0.80;;
76053;SDS011;64752;48.870;9.082;2023-11-19T14:36:33;2.07;;;0.47;;
76053;SDS011;64752;48.870;9.082;2023-11-19T14:38:58;2.97;;;0.70;;
76053;SDS011;64752;48.870;9.082;2023-11-19T14:41:25;0.90;;;0.45;;
76053;SDS011;64752;48.870;9.082;2023-11-19T14:43:51;1.27;;;0.83;;
76053;SDS011;64752;48.870;9.082;2023-11-19T14:46:17;2.40;;;0.80;;
76053;SDS011;64752;48.870;9.082;2023-11-19T14:48:42;1.53;;;0.50;;
76053;SDS011;64752;48.870;9.082;2023-11-19T14:51:07;3.92;;;0.98;;
76053;SDS011;64752;48.870;9.082;2023-11-19T14:53:33;3.17;;;0.63;;
76053;SDS011;64752;48.870;9.082;2023-11-19T14:55:59;2.50;;;0.80;;
76053;SDS011;64752;48.870;9.082;2023-11-19T14:58:25;2.00;;;0.80;;
76053;SDS011;64752;48.870;9.082;2023-11-19T15:00:51;2.40;;;0.90;;
76053;SDS011;64752;48.870;9.082;2023-11-19T15:03:16;1.60;;;0.53;;
76053;SDS011;64752;48.870;9.082;2023-11-19T15:05:44;2.60;;;0.57;;
76053;SDS011;64752;48.870;9.082;2023-11-19T15:08:11;2.63;;;0.90;;
76053;SDS011;64752;48.870;9.082;2023-11-19T15:10:36;3.13;;;0.70;;
76053;SDS011;64752;48.870;9.082;2023-11-19T15:13:02;2.97;;;0.90;;
76053;SDS011;64752;48.870;9.082;2023-11-19T15:15:28;2.33;;;0.75;;
76053;SDS011;64752;48.870;9.082;2023-11-19T15:17:54;1.53;;;0.60;;
76053;SDS011;64752;48.870;9.082;2023-11-19T15:20:19;2.43;;;0.57;;